Time;durP1;ratioP1;P1;durP2;ratioP2;P2;SDS_P1;SDS_P2;PMS_P1;PMS_P2;Temp;Humidity;BMP_temperature;BMP_pressure;BME280_temperature;BME280_humidity;BME280_pressure;Samples;Min_cycle;Max_cycle;Signal;HPM_P1;HPM_P2
2022/02/14 00:34:21;;;;;;;0.00;0.00;;;;;;;2.27;66.06;99988.31;6132646;22;20094;-81
2022/02/14 00:39:22;;;;;;;0.00;0.00;;;;;;;2.15;66.64;99971.41;6193102;22;20025;-81
2022/02/14 00:51:59;;;;;;;0.00;0.00;;;;;;;1.97;67.27;99967.47;6232407;22;19929;-79
2022/02/14 00:54:36;;;;;;;0.00;0.00;;;;;;;1.90;67.68;99956.91;6089826;23;20480;-80
2022/02/14 00:57:01;;;;;;;0.00;0.00;;;;;;;1.89;67.50;99960.56;6089364;23;20018;-77
2022/02/14 00:59:27;;;;;;;0.00;0.00;;;;;;;1.89;68.02;99960.56;6090459;23;20081;-78
2022/02/14 01:01:53;;;;;;;0.00;0.00;;;;;;;1.85;68.14;99951.38;6086803;23;19998;-78
2022/02/14 01:04:18;;;;;;;0.00;0.00;;;;;;;1.82;67.98;99954.44;6089336;23;20036;-79
2022/02/14 01:06:45;;;;;;;0.00;0.00;;;;;;;1.81;68.49;99950.16;6065934;23;20037;-80
2022/02/14 01:09:10;;;;;;;0.00;0.00;;;;;;;1.83;68.49;99942.88;6064948;23;20002;-78
2022/02/14 01:11:36;;;;;;;0.00;0.00;;;;;;;1.83;68.14;99945.53;6065261;23;20013;-78
2022/02/14 01:14:02;;;;;;;0.00;0.00;;;;;;;1.82;67.94;99941.25;6088961;23;20071;-77
2022/02/14 01:16:27;;;;;;;0.00;0.00;;;;;;;1.83;68.11;99934.13;6064764;23;20049;-78
2022/02/14 01:18:53;;;;;;;0.00;0.00;;;;;;;1.82;68.03;99935.97;6065099;23;20013;-79
2022/02/14 01:21:18;;;;;;;0.00;0.00;;;;;;;1.79;68.29;99927.63;6065362;23;20007;-77
2022/02/14 01:30:27;;;;;;;0.00;0.00;;;;;;;1.83;68.09;99923.59;6149581;22;20025;-79
2022/02/14 01:32:52;;;;;;;0.00;0.00;;;;;;;1.79;68.19;99917.09;6159856;23;20014;-79
2022/02/14 01:35:18;;;;;;;0.20;0.20;;;;;;;1.76;68.06;99919.09;6126138;22;20522;-78
2022/02/14 01:37:44;;;;;;;0.00;0.00;;;;;;;1.74;67.90;99915.84;6278189;22;20083;-77
2022/02/14 01:40:12;;;;;;;0.10;0.10;;;;;;;1.72;67.92;99917.88;6304071;22;20008;-79
2022/02/14 01:42:38;;;;;;;0.00;0.00;;;;;;;1.70;68.30;99914.59;6277663;22;20010;-78
2022/02/14 01:45:04;;;;;;;0.00;0.00;;;;;;;1.70;68.22;99917.25;6275847;22;20007;-79
2022/02/14 01:47:31;;;;;;;0.00;0.00;;;;;;;1.68;68.45;99913.19;6278468;22;20007;-79
2022/02/14 01:50:15;;;;;;;0.00;0.00;;;;;;;1.68;68.37;99913.19;6305822;22;20014;-79
2022/02/14 01:56:54;;;;;;;0.00;0.00;;;;;;;1.68;68.87;99897.38;6333019;22;20053;-82
2022/02/14 01:59:33;;;;;;;0.00;0.00;;;;;;;1.68;69.34;99900.81;6332621;22;20038;-82
2022/02/14 02:02:02;;;;;;;0.00;0.00;;;;;;;1.67;68.91;99898.38;6324780;22;20359;-79
2022/02/14 02:08:00;;;;;;;0.00;0.00;;;;;;;1.67;69.09;99890.47;6144273;22;19939;-81
2022/02/14 02:10:26;;;;;;;;;;;;;;;1.64;68.76;99894.31;6131344;22;20021;-81
2022/02/14 02:12:54;;;;;;;0.00;0.00;;;;;;;1.62;69.21;99890.25;6123012;23;19904;-81
2022/02/14 02:15:22;;;;;;;0.00;0.00;;;;;;;1.62;69.00;99895.50;6113279;22;20021;-81
2022/02/14 02:17:50;;;;;;;0.00;0.00;;;;;;;1.61;68.85;99881.50;6150862;23;20005;-80
2022/02/14 02:20:19;;;;;;;0.00;0.00;;;;;;;1.62;68.90;99885.75;6148861;23;20005;-80
2022/02/14 02:22:49;;;;;;;0.00;0.00;;;;;;;1.60;68.74;99887.81;6150627;22;20560;-80
2022/02/14 02:25:17;;;;;;;0.00;0.00;;;;;;;1.63;68.85;99876.06;6146629;23;20075;-78
2022/02/14 02:27:43;;;;;;;0.00;0.00;;;;;;;1.66;69.08;99883.56;6146143;23;20008;-78
2022/02/14 02:30:14;;;;;;;0.00;0.00;;;;;;;1.66;69.21;99886.19;6147898;23;20006;-78
2022/02/14 02:32:41;;;;;;;0.00;0.00;;;;;;;1.63;69.10;99884.75;6147844;23;20005;-78
2022/02/14 02:35:08;;;;;;;0.00;0.00;;;;;;;1.62;68.74;99884.97;6148106;23;20016;-78
2022/02/14 02:37:33;;;;;;;0.00;0.00;;;;;;;1.59;69.00;99886.97;6149958;23;20010;-79
2022/02/14 02:39:59;;;;;;;0.00;0.00;;;;;;;1.57;69.09;99880.28;6148960;23;20079;-78
2022/02/14 02:42:25;;;;;;;0.00;0.00;;;;;;;1.58;69.22;99872.16;6148253;23;20013;-78
2022/02/14 02:45:12;;;;;;;0.00;0.00;;;;;;;1.59;69.46;99879.06;6149476;23;20040;-79
2022/02/14 02:48:14;;;;;;;0.00;0.00;;;;;;;1.59;69.49;99875.63;6282439;22;20013;-79
2022/02/14 03:02:40;;;;;;;0.00;0.00;;;;;;;1.52;68.82;99870.31;6151533;23;20028;-81
2022/02/14 03:08:59;;;;;;;0.00;0.00;;;;;;;1.49;68.90;99878.63;6211111;22;20099;-81
2022/02/14 03:11:25;;;;;;;0.00;0.00;;;;;;;1.46;68.75;99870.28;6220999;22;20014;-82
2022/02/14 03:13:53;;;;;;;0.00;0.00;;;;;;;1.42;68.79;99875.94;6145083;22;19994;-83
2022/02/14 03:45:59;;;;;;;0.00;0.00;;;;;;;1.13;68.68;99876.19;6151105;23;20064;-80
2022/02/14 03:49:05;;;;;;;0.00;0.00;;;;;;;1.12;68.48;99875.38;6123283;23;20463;-82
2022/02/14 03:51:30;;;;;;;0.00;0.00;;;;;;;1.05;68.54;99867.44;6121383;23;20045;-80
2022/02/14 03:53:55;;;;;;;0.00;0.00;;;;;;;1.03;68.72;99869.44;6122765;23;20050;-80
2022/02/14 03:56:22;;;;;;;0.00;0.00;;;;;;;1.01;68.34;99865.38;6123004;23;20009;-81
2022/02/14 03:58:47;;;;;;;0.00;0.00;;;;;;;1.04;68.55;99872.88;6127167;23;20001;-79
2022/02/14 04:01:13;;;;;;;0.00;0.00;;;;;;;1.03;68.47;99871.28;6123999;23;19998;-80
2022/02/14 04:07:03;;;;;;;0.00;0.00;;;;;;;1.01;68.16;99870.66;6156748;23;20021;-80
2022/02/14 04:10:00;;;;;;;0.00;0.00;;;;;;;1.02;68.33;99872.28;6128160;23;20147;-82
2022/02/14 04:12:25;;;;;;;0.00;0.00;;;;;;;1.01;68.02;99870.66;6142048;23;20483;-81
2022/02/14 04:37:45;;;;;;;0.00;0.00;;;;;;;0.57;67.84;99867.28;6183002;22;20024;-79
2022/02/14 04:40:11;;;;;;;0.35;0.35;;;;;;;0.49;67.59;99870.88;6104684;23;20041;-78
2022/02/14 04:42:58;;;;;;;0.00;0.00;;;;;;;0.42;68.13;99867.38;6126240;23;20002;-81
2022/02/14 04:45:28;;;;;;;0.00;0.00;;;;;;;0.34;67.98;99865.66;6154261;22;20019;-80
2022/02/14 04:47:55;;;;;;;0.00;0.00;;;;;;;0.37;68.38;99867.91;6144068;22;20073;-79
2022/02/14 04:50:25;;;;;;;0.00;0.00;;;;;;;0.34;68.20;99870.91;6123282;22;20026;-81
2022/02/14 04:52:51;;;;;;;0.00;0.00;;;;;;;0.29;67.98;99865.41;6194796;22;20242;-80
2022/02/14 04:55:20;;;;;;;0.00;0.00;;;;;;;0.29;68.48;99873.31;6148254;22;20018;-79
2022/02/14 04:57:45;;;;;;;0.00;0.00;;;;;;;0.25;68.85;99870.22;6150698;22;20061;-80
2022/02/14 05:00:26;;;;;;;0.00;0.00;;;;;;;0.26;68.79;99871.06;6156979;22;20003;-81
2022/02/14 05:03:08;;;;;;;0.32;0.32;;;;;;;0.26;68.47;99871.88;6291831;22;19996;-81
2022/02/14 05:05:34;;;;;;;0.00;0.00;;;;;;;0.26;68.35;99874.50;6144109;22;20038;-81
2022/02/14 05:08:08;;;;;;;0.00;0.00;;;;;;;0.23;68.55;99871.44;6159323;22;20000;-82
2022/02/14 05:10:53;;;;;;;0.00;0.00;;;;;;;0.22;68.60;99877.69;6134618;22;20104;-79
2022/02/14 05:13:18;;;;;;;0.00;0.00;;;;;;;0.20;68.90;99874.44;6123301;23;20510;-79
2022/02/14 05:15:44;;;;;;;0.00;0.00;;;;;;;0.19;68.37;99878.06;6123843;23;20009;-79
2022/02/14 05:18:09;;;;;;;0.00;0.00;;;;;;;0.20;68.41;99880.50;6119970;23;20021;-79
2022/02/14 05:20:35;;;;;;;0.00;0.00;;;;;;;0.21;68.32;99884.78;6122261;23;20079;-78
2022/02/14 05:23:00;;;;;;;0.00;0.00;;;;;;;0.22;67.97;99883.78;6127502;23;20012;-79
2022/02/14 05:25:25;;;;;;;0.00;0.00;;;;;;;0.25;68.18;99882.59;6123398;23;20084;-78
2022/02/14 05:27:51;;;;;;;0.00;0.00;;;;;;;0.22;67.78;99885.56;6144092;22;20057;-79
2022/02/14 05:30:16;;;;;;;0.00;0.00;;;;;;;0.31;68.09;99887.91;6146354;22;20011;-79
2022/02/14 05:32:48;;;;;;;0.00;0.00;;;;;;;0.36;68.02;99886.53;6144804;22;20032;-81
2022/02/14 05:35:17;;;;;;;0.00;0.00;;;;;;;0.37;68.16;99885.53;6147317;22;20026;-79
2022/02/14 05:41:59;;;;;;;0.00;0.00;;;;;;;0.53;67.93;99898.44;6065223;23;20014;-81
2022/02/14 05:45:15;;;;;;;0.00;0.00;;;;;;;0.59;68.00;99894.22;6038063;23;20010;-81
2022/02/14 05:48:36;;;;;;;0.00;0.00;;;;;;;0.71;68.02;99899.78;6013509;23;20114;-81
2022/02/14 05:51:46;;;;;;;0.00;0.00;;;;;;;0.83;68.64;99894.81;5951907;24;20013;-81
2022/02/14 05:54:55;;;;;;;0.00;0.00;;;;;;;0.99;67.79;99897.19;6007191;23;20060;-81
2022/02/14 05:58:22;;;;;;;0.00;0.00;;;;;;;1.16;67.81;99889.81;5951095;24;20020;-81
2022/02/14 06:01:11;;;;;;;0.00;0.00;;;;;;;1.24;67.94;99886.19;5940942;24;20008;-81
2022/02/14 06:03:58;;;;;;;0.00;0.00;;;;;;;1.40;67.17;99887.69;5948841;24;20128;-80
2022/02/14 06:06:25;;;;;;;0.00;0.00;;;;;;;1.50;68.37;99897.88;5934239;24;20012;-80
2022/02/14 06:08:52;;;;;;;0.30;0.30;;;;;;;1.58;67.13;99889.81;5988134;23;20011;-81
2022/02/14 06:11:29;;;;;;;0.00;0.00;;;;;;;1.70;67.63;99896.16;6034705;23;20071;-81
2022/02/14 06:13:57;;;;;;;0.40;0.40;;;;;;;1.87;67.32;99903.75;6087629;23;20030;-80
2022/02/14 06:16:25;;;;;;;0.00;0.00;;;;;;;1.99;67.26;99903.97;6066962;23;20006;-80
2022/02/14 06:18:53;;;;;;;0.00;0.00;;;;;;;2.10;66.59;99900.75;6090405;23;20002;-80
2022/02/14 06:21:23;;;;;;;0.13;0.13;;;;;;;2.24;66.22;99902.41;6020759;23;20020;-80
2022/02/14 06:23:51;;;;;;;0.00;0.00;;;;;;;2.39;66.12;99896.13;5972589;24;20466;-81
2022/02/14 06:26:19;;;;;;;0.00;0.00;;;;;;;2.51;65.77;99896.38;5973167;24;20028;-80
2022/02/14 06:28:45;;;;;;;0.10;0.10;;;;;;;2.63;65.07;99899.22;5973431;24;20358;-80
2022/02/14 06:31:12;;;;;;;0.57;0.57;;;;;;;2.75;65.00;99897.59;5973361;23;20008;-80
2022/02/14 06:33:39;;;;;;;0.00;0.00;;;;;;;2.87;65.10;99895.97;5949772;24;20017;-80
2022/02/14 06:36:07;;;;;;;0.00;0.00;;;;;;;3.00;64.72;99903.09;5949974;24;20075;-80
2022/02/14 06:38:36;;;;;;;0.00;0.00;;;;;;;3.13;64.38;99901.44;5950418;24;20009;-80
2022/02/14 06:41:05;;;;;;;0.00;0.00;;;;;;;3.26;64.13;99903.22;5973043;24;20011;-79
2022/02/14 06:43:34;;;;;;;0.00;0.00;;;;;;;3.37;64.08;99899.97;5969878;24;20117;-80
2022/02/14 06:46:00;;;;;;;0.00;0.00;;;;;;;3.46;64.16;99903.19;5926383;24;20059;-79
2022/02/14 06:48:30;;;;;;;0.00;0.00;;;;;;;3.62;64.21;99899.28;6203917;23;20091;-80
2022/02/14 06:50:57;;;;;;;0.00;0.00;;;;;;;3.72;63.82;99899.63;6214837;23;20031;-80
2022/02/14 06:53:23;;;;;;;0.00;0.00;;;;;;;3.84;63.59;99900.63;6241734;22;19996;-79
2022/02/14 06:55:49;;;;;;;0.00;0.00;;;;;;;3.97;63.73;99898.94;6112314;23;20050;-79
2022/02/14 06:58:17;;;;;;;0.00;0.00;;;;;;;4.07;63.73;99893.19;6112956;23;20008;-79
2022/02/14 07:00:57;;;;;;;0.00;0.00;;;;;;;4.20;63.13;99902.88;6113162;23;20453;-80
2022/02/14 07:03:23;;;;;;;0.20;0.20;;;;;;;4.32;63.37;99902.00;6242249;23;20444;-79
2022/02/14 07:05:48;;;;;;;0.05;0.05;;;;;;;4.46;63.15;99901.91;6114950;23;20111;-80
2022/02/14 07:08:15;;;;;;;0.00;0.00;;;;;;;4.59;62.63;99896.53;6115887;23;20012;-80
2022/02/14 07:10:40;;;;;;;0.38;0.38;;;;;;;4.68;62.45;99898.91;6115544;23;20433;-80
2022/02/14 07:13:07;;;;;;;0.00;0.00;;;;;;;4.78;61.92;99896.56;6114392;23;20087;-80
2022/02/14 07:15:33;;;;;;;2.10;1.45;;;;;;;4.89;62.04;99898.50;6113551;23;20006;-80
2022/02/14 07:18:19;;;;;;;0.00;0.00;;;;;;;4.98;61.91;99885.81;6117991;23;20000;-80
2022/02/14 07:21:03;;;;;;;0.28;0.28;;;;;;;5.11;61.59;99890.16;6245831;23;19996;-80
2022/02/14 07:23:29;;;;;;;2.72;0.68;;;;;;;5.22;61.91;99880.69;6115142;23;20331;-80
2022/02/14 07:25:59;;;;;;;0.00;0.00;;;;;;;5.32;62.21;99880.16;6114535;23;20012;-80
2022/02/14 07:28:30;;;;;;;0.28;0.28;;;;;;;5.37;61.69;99882.97;6220538;23;20465;-79
2022/02/14 07:30:58;;;;;;;0.00;0.00;;;;;;;5.52;61.49;99879.97;6217081;23;20019;-78
2022/02/14 07:34:41;;;;;;;0.05;0.05;;;;;;;5.73;61.38;99876.81;6242710;23;20007;-79
2022/02/14 07:37:44;;;;;;;0.00;0.00;;;;;;;5.85;59.56;99868.13;6245652;23;20511;-81
2022/02/14 07:40:37;;;;;;;3.50;1.35;;;;;;;5.96;59.82;99869.19;6242959;23;20007;-80
2022/02/14 07:44:15;;;;;;;0.00;0.00;;;;;;;6.12;60.34;99875.78;6244801;23;20004;-80
2022/02/14 07:47:15;;;;;;;0.03;0.03;;;;;;;6.24;60.84;99873.97;6141235;23;20048;-81
2022/02/14 07:50:07;;;;;;;0.00;0.00;;;;;;;6.40;59.70;99872.50;6216777;23;20505;-81
2022/02/14 07:53:02;;;;;;;0.00;0.00;;;;;;;6.43;58.92;99872.03;6200460;22;20440;-80
2022/02/14 07:55:31;;;;;;;0.03;0.03;;;;;;;6.43;58.99;99880.00;6213605;23;19996;-80
2022/02/14 07:58:35;;;;;;;0.00;0.00;;;;;;;6.44;59.01;99875.50;6232189;23;20008;-80
2022/02/14 08:02:01;;;;;;;0.98;0.90;;;;;;;6.39;59.62;99871.66;6194665;23;20000;-80
2022/02/14 08:05:24;;;;;;;0.00;0.00;;;;;;;6.39;59.45;99869.00;6167736;23;20004;-80
2022/02/14 08:12:35;;;;;;;1.40;1.30;;;;;;;6.43;59.15;99869.38;6177460;23;20040;-80
2022/02/14 08:15:34;;;;;;;0.00;0.00;;;;;;;6.52;60.71;99864.56;6064542;23;20007;-80
2022/02/14 08:22:54;;;;;;;0.00;0.00;;;;;;;6.70;58.54;99863.63;6007622;23;20394;-80
2022/02/14 08:26:43;;;;;;;0.10;0.10;;;;;;;6.72;58.80;99859.69;5902793;24;20054;-80
2022/02/14 08:30:02;;;;;;;0.00;0.00;;;;;;;6.74;58.38;99859.50;5945430;24;20133;-80
2022/02/14 08:33:31;;;;;;;0.70;0.70;;;;;;;6.78;57.84;99849.19;5920280;24;20032;-80
2022/02/14 08:40:34;;;;;;;0.00;0.00;;;;;;;6.77;58.51;99852.91;5923991;24;20024;-80
2022/02/14 08:43:36;;;;;;;0.10;0.10;;;;;;;6.86;58.40;99854.16;5925954;24;20013;-80
2022/02/14 08:50:19;;;;;;;0.00;0.00;;;;;;;6.92;58.36;99858.56;5896800;24;20024;-80
2022/02/14 09:07:24;;;;;;;0.85;0.80;;;;;;;7.13;57.36;99869.63;5957546;23;20095;-80
2022/02/14 09:14:27;;;;;;;1.75;1.40;;;;;;;7.12;55.68;99860.88;5976805;23;20083;-81
2022/02/14 09:58:52;;;;;;;0.15;0.15;;;;;;;7.48;51.34;99824.38;6179838;23;20039;-80
2022/02/14 10:05:33;;;;;;;0.20;0.20;;;;;;;7.69;50.96;99824.75;6070413;23;20474;-80
2022/02/14 10:08:48;;;;;;;0.10;0.08;;;;;;;7.77;50.35;99818.25;6040326;23;20010;-80
2022/02/14 10:12:06;;;;;;;0.00;0.00;;;;;;;7.83;50.20;99803.97;6127939;23;20443;-80
2022/02/14 10:15:30;;;;;;;0.98;0.93;;;;;;;7.84;49.16;99801.06;6124708;23;19997;-80
2022/02/14 10:22:16;;;;;;;0.00;0.00;;;;;;;7.80;49.09;99789.28;6091813;23;20057;-80
2022/02/14 10:33:11;;;;;;;0.20;0.20;;;;;;;8.01;49.95;99771.00;6033950;23;20038;-79
2022/02/14 10:36:10;;;;;;;0.05;0.05;;;;;;;8.01;49.25;99763.00;5898819;24;20021;-80
2022/02/14 10:39:16;;;;;;;0.30;0.30;;;;;;;8.03;48.55;99758.22;6005601;23;20112;-80
2022/02/14 10:43:02;;;;;;;0.00;0.00;;;;;;;8.01;48.61;99747.03;6065152;23;19999;-81
2022/02/14 11:27:40;;;;;;;0.00;0.00;;;;;;;8.58;49.24;99682.06;6009468;23;20019;-80
2022/02/14 11:46:17;;;;;;;0.00;0.00;;;;;;;8.97;47.62;99665.16;6121637;23;20042;-81
2022/02/14 12:06:43;;;;;;;0.00;0.00;;;;;;;9.15;46.36;99650.69;5988763;23;20023;-81
2022/02/14 12:32:37;;;;;;;0.10;0.10;;;;;;;9.43;46.07;99625.59;6212071;22;20061;-80
2022/02/14 12:38:37;;;;;;;0.00;0.00;;;;;;;9.56;45.93;99620.91;6263586;22;20489;-80
2022/02/14 12:41:14;;;;;;;0.00;0.00;;;;;;;9.64;45.75;99622.31;6225584;22;20018;-81
2022/02/14 12:43:46;;;;;;;0.00;0.00;;;;;;;9.70;45.76;99618.59;6246230;22;20004;-81
2022/02/14 12:46:14;;;;;;;0.10;0.10;;;;;;;9.78;45.67;99613.59;6245736;22;20011;-82
2022/02/14 12:48:49;;;;;;;;;;;;;;;9.83;45.27;99610.16;6246904;22;20000;-81
2022/02/14 12:51:21;;;;;;;0.00;0.00;;;;;;;9.86;45.72;99616.84;6246615;22;19907;-80
2022/02/14 12:53:49;;;;;;;0.00;0.00;;;;;;;9.92;45.57;99616.63;6245905;22;20004;-83
2022/02/14 12:56:21;;;;;;;0.00;0.00;;;;;;;10.01;45.31;99606.25;6247177;22;20019;-80
2022/02/14 12:59:02;;;;;;;0.00;0.00;;;;;;;10.04;45.58;99611.06;6246479;22;20010;-81
2022/02/14 13:01:36;;;;;;;0.00;0.00;;;;;;;10.08;44.93;99608.69;6247731;22;20094;-82
2022/02/14 13:04:02;;;;;;;0.00;0.00;;;;;;;10.10;44.78;99607.38;6247171;22;20023;-81
2022/02/14 13:06:49;;;;;;;0.00;0.00;;;;;;;10.15;44.47;99608.47;6270079;22;20004;-82
2022/02/14 13:09:17;;;;;;;0.20;0.20;;;;;;;10.08;44.05;99606.84;6246143;22;20011;-82
2022/02/14 13:11:43;;;;;;;0.00;0.00;;;;;;;10.04;44.00;99616.41;6272367;22;20288;-82
2022/02/14 13:17:28;;;;;;;0.00;0.00;;;;;;;10.03;44.60;99614.84;6273158;22;20361;-82
2022/02/14 13:20:02;;;;;;;0.00;0.00;;;;;;;10.07;45.02;99609.75;6247094;22;20010;-81
2022/02/14 13:22:35;;;;;;;0.00;0.00;;;;;;;10.15;44.93;99609.28;6246529;22;20003;-82
2022/02/14 13:25:15;;;;;;;0.00;0.00;;;;;;;10.13;44.31;99610.59;6246166;22;20209;-82
2022/02/14 13:27:41;;;;;;;0.00;0.00;;;;;;;10.15;44.82;99608.47;6246634;22;20031;-83
2022/02/14 13:30:11;;;;;;;0.00;0.00;;;;;;;10.20;44.78;99605.81;6247085;22;20456;-82
2022/02/14 13:32:39;;;;;;;0.00;0.00;;;;;;;10.22;44.43;99601.03;6272519;22;20051;-81
2022/02/14 13:35:07;;;;;;;0.00;0.00;;;;;;;10.25;44.72;99604.00;6246794;22;20011;-82
2022/02/14 13:37:49;;;;;;;0.25;0.25;;;;;;;10.30;44.50;99597.88;6246255;22;20037;-80
2022/02/14 13:40:42;;;;;;;0.00;0.00;;;;;;;10.33;44.07;99597.34;6272027;22;20025;-83
2022/02/14 13:43:27;;;;;;;0.10;0.10;;;;;;;10.37;44.57;99594.97;6245119;22;20061;-83
2022/02/14 13:45:58;;;;;;;0.00;0.00;;;;;;;10.37;43.84;99586.97;6246301;22;20028;-82
2022/02/14 13:48:29;;;;;;;0.00;0.00;;;;;;;10.43;43.95;99593.16;6245510;22;20095;-80
2022/02/14 13:51:00;;;;;;;0.00;0.00;;;;;;;10.46;43.97;99581.91;6244297;22;20113;-81
2022/02/14 13:53:25;;;;;;;0.00;0.00;;;;;;;10.44;43.54;99584.06;6246391;22;20015;-80
2022/02/14 13:56:06;;;;;;;0.00;0.00;;;;;;;10.44;43.82;99589.41;6271524;22;20202;-81
2022/02/14 13:58:35;;;;;;;0.35;0.35;;;;;;;10.41;43.68;99586.19;6246522;22;20007;-82
2022/02/14 14:01:04;;;;;;;0.00;0.00;;;;;;;10.33;43.77;99588.53;6246362;22;20158;-82
2022/02/14 14:03:29;;;;;;;0.10;0.10;;;;;;;10.28;43.59;99573.25;6246879;22;20019;-81
2022/02/14 14:05:55;;;;;;;0.00;0.00;;;;;;;10.29;44.08;99588.25;6246527;22;20413;-82
2022/02/14 14:08:35;;;;;;;0.00;0.00;;;;;;;10.25;44.08;99585.28;6247043;22;20073;-82
2022/02/14 14:11:01;;;;;;;0.57;0.57;;;;;;;10.24;44.63;99582.84;6248233;22;20098;-81
2022/02/14 14:13:56;;;;;;;0.00;0.00;;;;;;;10.22;44.13;99588.47;6250129;22;20046;-82
2022/02/14 14:16:21;;;;;;;0.00;0.00;;;;;;;10.20;44.21;99587.91;6249341;22;20486;-82
2022/02/14 14:18:47;;;;;;;0.00;0.00;;;;;;;10.20;44.53;99582.56;6249714;22;20008;-82
2022/02/14 14:21:14;;;;;;;0.00;0.00;;;;;;;10.20;44.68;99584.44;6250159;22;20004;-81
2022/02/14 14:23:40;;;;;;;0.00;0.00;;;;;;;10.20;44.46;99577.22;6249938;22;20019;-82
2022/02/14 14:26:07;;;;;;;0.05;0.05;;;;;;;10.21;44.29;99583.38;6250135;22;20008;-81
2022/02/14 14:28:35;;;;;;;0.00;0.00;;;;;;;10.20;44.33;99584.44;6250060;22;20038;-81
2022/02/14 14:31:01;;;;;;;0.00;0.00;;;;;;;10.19;44.09;99583.66;6249708;22;20057;-81
2022/02/14 14:33:28;;;;;;;0.00;0.00;;;;;;;10.18;44.22;99583.88;6272617;22;20035;-82
2022/02/14 14:35:53;;;;;;;0.13;0.13;;;;;;;10.14;43.86;99583.59;6249345;22;20003;-81
2022/02/14 14:38:19;;;;;;;0.00;0.00;;;;;;;10.10;44.35;99580.66;6249861;22;20018;-81
2022/02/14 14:40:45;;;;;;;0.00;0.00;;;;;;;10.08;44.44;99576.63;6249037;22;20010;-82
2022/02/14 14:43:10;;;;;;;0.00;0.00;;;;;;;10.09;44.47;99579.06;6249439;22;20011;-82
2022/02/14 14:45:36;;;;;;;0.00;0.00;;;;;;;10.06;44.41;99570.75;6249695;22;20004;-81
2022/02/14 14:48:01;;;;;;;0.00;0.00;;;;;;;10.01;44.95;99581.41;6249523;22;20039;-81
2022/02/14 14:50:27;;;;;;;0.00;0.00;;;;;;;9.97;44.53;99572.31;6249730;22;20429;-81
2022/02/14 14:52:53;;;;;;;0.00;0.00;;;;;;;9.92;44.72;99576.56;6275507;22;20043;-82
2022/02/14 14:55:19;;;;;;;0.00;0.00;;;;;;;9.91;44.74;99574.94;6249881;22;20008;-81
2022/02/14 14:57:44;;;;;;;0.00;0.00;;;;;;;9.91;44.44;99572.28;6248569;22;20007;-81
2022/02/14 15:00:10;;;;;;;0.00;0.00;;;;;;;9.90;44.87;99577.88;6249150;22;20003;-81
2022/02/14 15:02:36;;;;;;;0.00;0.00;;;;;;;9.88;44.31;99580.00;6249658;22;20014;-81
2022/02/14 15:05:01;;;;;;;0.43;0.43;;;;;;;9.91;44.65;99582.97;6249399;22;20421;-82
2022/02/14 15:07:27;;;;;;;0.00;0.00;;;;;;;9.91;44.48;99577.63;6249563;22;20456;-81
2022/02/14 15:09:54;;;;;;;0.00;0.00;;;;;;;9.93;44.70;99585.38;6249182;22;20010;-83
2022/02/14 15:12:20;;;;;;;0.17;0.17;;;;;;;9.92;44.88;99584.56;6274978;22;20007;-82
2022/02/14 15:14:46;;;;;;;0.00;0.00;;;;;;;9.90;44.84;99588.56;6247495;22;20086;-81
2022/02/14 15:17:13;;;;;;;0.00;0.00;;;;;;;9.88;44.52;99585.34;6249072;22;20010;-79
2022/02/14 15:19:39;;;;;;;0.00;0.00;;;;;;;9.94;45.08;99589.66;6249572;22;20008;-82
2022/02/14 15:22:05;;;;;;;0.10;0.10;;;;;;;9.94;44.88;99590.44;6247642;22;20008;-81
2022/02/14 15:24:31;;;;;;;0.10;0.10;;;;;;;9.97;44.90;99591.78;6248216;22;20004;-81
2022/02/14 15:26:57;;;;;;;0.00;0.00;;;;;;;9.89;44.93;99598.44;6247376;22;20004;-81
2022/02/14 15:29:23;;;;;;;0.10;0.10;;;;;;;9.89;44.97;99593.09;6248227;22;20019;-82
2022/02/14 15:31:49;;;;;;;0.00;0.00;;;;;;;9.89;45.38;99600.31;6247482;22;20013;-79
2022/02/14 15:34:15;;;;;;;0.00;0.00;;;;;;;9.81;44.83;99595.44;6247486;22;20015;-82
2022/02/14 15:37:06;;;;;;;0.20;0.20;;;;;;;9.66;44.92;99596.94;6247836;22;20016;-80
2022/02/14 15:39:41;;;;;;;0.57;0.57;;;;;;;9.57;45.08;99601.13;6273643;22;20090;-79
2022/02/14 15:42:33;;;;;;;0.55;0.55;;;;;;;9.50;46.16;99603.25;6247251;22;20531;-80
2022/02/14 15:45:47;;;;;;;1.08;1.08;;;;;;;9.39;45.73;99597.81;6274402;22;20074;-80
2022/02/14 15:48:57;;;;;;;0.80;0.80;;;;;;;9.36;46.16;99602.84;6274459;22;20445;-81
2022/02/14 16:01:24;;;;;;;0.52;0.52;;;;;;;9.09;46.76;99615.16;6180265;23;20501;-80
2022/02/14 16:04:14;;;;;;;3.08;2.88;;;;;;;9.05;47.37;99619.38;6131461;23;20001;-85
2022/02/14 16:06:43;;;;;;;0.88;0.88;;;;;;;9.06;47.55;99622.88;6125546;23;20040;-81
2022/02/14 16:09:09;;;;;;;0.20;0.20;;;;;;;9.04;47.38;99622.31;6153487;23;20052;-80
2022/02/14 16:11:37;;;;;;;0.43;0.43;;;;;;;9.01;47.26;99625.47;6156946;23;20001;-81
2022/02/14 16:14:11;;;;;;;0.57;0.57;;;;;;;8.97;47.20;99625.97;6181408;23;20551;-79
2022/02/14 16:16:58;;;;;;;1.95;1.85;;;;;;;8.93;47.86;99632.06;6181758;23;20008;-82
2022/02/14 16:19:26;;;;;;;0.10;0.10;;;;;;;8.88;48.16;99624.78;6183588;23;20001;-79
2022/02/14 16:21:52;;;;;;;0.68;0.68;;;;;;;8.86;48.58;99632.25;6185944;22;20011;-79
2022/02/14 16:24:19;;;;;;;0.75;0.75;;;;;;;8.80;49.12;99631.41;6246597;22;20356;-78
2022/02/14 16:27:22;;;;;;;0.20;0.20;;;;;;;8.80;49.36;99633.25;6249524;22;20006;-82
2022/02/14 16:29:49;;;;;;;0.65;0.65;;;;;;;8.75;49.93;99623.34;6257749;22;20004;-78
2022/02/14 16:33:08;;;;;;;0.35;0.35;;;;;;;8.68;50.42;99620.06;6251690;22;19999;-86
2022/02/14 16:35:34;;;;;;;0.25;0.25;;;;;;;8.67;50.99;99622.94;6246513;22;19999;-77
2022/02/14 16:38:00;;;;;;;0.95;0.95;;;;;;;8.66;50.98;99624.81;6244884;22;20064;-76
2022/02/14 16:40:27;;;;;;;0.15;0.15;;;;;;;8.65;51.60;99621.38;6243626;22;20078;-80
2022/02/14 16:43:09;;;;;;;0.10;0.10;;;;;;;8.63;51.53;99634.13;6245753;22;19999;-81
2022/02/14 16:50:03;;;;;;;0.10;0.10;;;;;;;8.61;51.99;99635.44;6226882;23;20512;-83
2022/02/14 17:03:33;;;;;;;0.00;0.00;;;;;;;8.57;52.20;99648.44;6098192;23;20041;-84
2022/02/14 17:06:01;;;;;;;0.00;0.00;;;;;;;8.55;52.48;99652.41;6088898;23;20544;-81
2022/02/14 17:09:32;;;;;;;0.08;0.08;;;;;;;8.54;52.74;99648.13;6095057;23;20002;-81
2022/02/14 17:13:01;;;;;;;0.00;0.00;;;;;;;8.51;52.71;99648.63;5977063;24;20004;-79
2022/02/14 17:16:00;;;;;;;0.20;0.20;;;;;;;8.50;53.34;99647.81;5953435;24;20029;-80
2022/02/14 17:19:35;;;;;;;0.08;0.08;;;;;;;8.45;53.33;99647.75;5977121;24;20047;-86
2022/02/14 17:22:21;;;;;;;0.00;0.00;;;;;;;8.49;53.40;99651.53;5978206;23;20050;-81
2022/02/14 17:24:46;;;;;;;0.82;0.75;;;;;;;8.45;53.64;99653.06;6032996;23;20074;-81
2022/02/14 17:27:12;;;;;;;0.10;0.10;;;;;;;8.40;53.66;99653.81;6131810;23;20063;-79
2022/02/14 17:29:39;;;;;;;0.10;0.10;;;;;;;8.38;53.74;99652.44;6211955;23;20483;-83
2022/02/14 17:32:04;;;;;;;0.00;0.00;;;;;;;8.38;53.91;99649.78;6187882;23;20438;-79
2022/02/14 17:34:31;;;;;;;0.50;0.50;;;;;;;8.40;53.81;99652.97;6216737;23;20004;-87
2022/02/14 17:37:39;;;;;;;0.10;0.10;;;;;;;8.34;54.03;99666.25;6198316;23;20008;-83
2022/02/14 17:40:11;;;;;;;0.32;0.22;;;;;;;8.32;54.34;99656.88;6211766;23;20035;-83
2022/02/14 17:42:51;;;;;;;0.55;0.55;;;;;;;8.29;54.58;99655.53;6190301;23;20000;-81
2022/02/14 17:45:51;;;;;;;0.00;0.00;;;;;;;8.23;54.81;99658.38;6193351;23;20083;-83
2022/02/14 17:49:13;;;;;;;0.00;0.00;;;;;;;8.22;55.08;99659.41;6212498;23;20037;-82
2022/02/14 17:52:06;;;;;;;1.38;0.85;;;;;;;8.09;55.57;99650.72;6209461;23;19996;-82
2022/02/14 17:54:53;;;;;;;1.48;1.38;;;;;;;8.06;55.73;99648.53;6263346;22;20010;-85
2022/02/14 17:57:46;;;;;;;0.10;0.10;;;;;;;8.01;55.81;99651.13;6215125;23;20016;-82
2022/02/14 18:01:04;;;;;;;0.00;0.00;;;;;;;7.95;56.37;99649.44;6210446;23;19988;-80
2022/02/14 18:04:00;;;;;;;0.35;0.35;;;;;;;7.83;56.86;99639.66;6231829;23;20015;-85
2022/02/14 18:07:17;;;;;;;0.10;0.10;;;;;;;7.80;57.24;99650.81;6214760;23;20060;-83
2022/02/14 18:10:26;;;;;;;0.13;0.13;;;;;;;7.65;57.63;99643.41;6162141;23;20020;-80
2022/02/14 18:14:01;;;;;;;0.30;0.30;;;;;;;7.67;57.44;99646.59;6108369;23;20037;-81
2022/02/14 18:29:16;;;;;;;0.17;0.17;;;;;;;7.46;58.22;99636.69;6203025;22;20054;-83
2022/02/14 18:32:28;;;;;;;0.00;0.00;;;;;;;7.50;58.22;99643.94;6171711;22;20013;-80
2022/02/14 18:35:21;;;;;;;0.08;0.08;;;;;;;7.55;58.38;99650.41;6207125;22;20152;-83
2022/02/14 18:38:34;;;;;;;0.45;0.45;;;;;;;7.56;58.45;99652.03;6200605;23;20005;-83
2022/02/14 18:44:54;;;;;;;0.08;0.08;;;;;;;7.45;57.93;99641.19;6139594;23;20020;-88
2022/02/14 18:47:41;;;;;;;0.75;0.75;;;;;;;7.50;58.02;99649.25;6151315;23;20358;-84
2022/02/14 18:53:06;;;;;;;0.00;0.00;;;;;;;7.47;58.21;99640.94;6166644;22;20027;-81